Time;durP1;ratioP1;P1;durP2;ratioP2;P2;SDS_P1;SDS_P2;PMS_P1;PMS_P2;Temp;Humidity;BMP_temperature;BMP_pressure;BME280_temperature;BME280_humidity;BME280_pressure;Samples;Min_cycle;Max_cycle;Signal;HPM_P1;HPM_P2
2023/04/07 00:00:51;;;;;;;2.80;1.85;;;19.70;47.60;;;;;;4971393;28;20210;-69
2023/04/07 00:03:17;;;;;;;2.05;1.80;;;19.70;47.60;;;;;;4978368;28;20213;-70
2023/04/07 00:05:43;;;;;;;2.72;1.73;;;19.70;47.60;;;;;;4982451;28;20231;-70
2023/04/07 00:08:08;;;;;;;3.15;2.00;;;19.70;47.60;;;;;;4971794;28;20185;-70
2023/04/07 00:10:36;;;;;;;2.33;1.67;;;19.70;47.70;;;;;;4979392;28;20666;-70
2023/04/07 00:13:01;;;;;;;2.03;1.83;;;19.70;47.70;;;;;;4979767;28;20289;-70
2023/04/07 00:15:27;;;;;;;1.85;1.70;;;19.70;47.70;;;;;;4979730;28;20200;-69
2023/04/07 00:17:53;;;;;;;2.10;1.90;;;19.70;47.70;;;;;;4972719;28;20272;-70
2023/04/07 00:20:19;;;;;;;1.80;1.70;;;19.70;47.70;;;;;;4978349;28;20216;-69
2023/04/07 00:22:45;;;;;;;1.70;1.48;;;19.70;47.70;;;;;;4974883;28;20198;-70
2023/04/07 00:25:10;;;;;;;2.42;1.67;;;19.60;47.60;;;;;;4979693;28;20223;-69
2023/04/07 00:27:36;;;;;;;2.20;1.75;;;19.70;47.70;;;;;;4972750;28;20194;-69
2023/04/07 00:30:03;;;;;;;1.65;1.55;;;19.60;47.60;;;;;;4990581;28;20207;-70
2023/04/07 00:32:28;;;;;;;1.50;1.40;;;19.70;47.80;;;;;;4983966;28;20319;-70
2023/04/07 00:34:54;;;;;;;3.17;2.00;;;19.60;47.60;;;;;;4980932;28;20680;-69
2023/04/07 00:37:20;;;;;;;1.60;1.50;;;19.70;47.80;;;;;;4971589;28;20204;-69
2023/04/07 00:39:46;;;;;;;1.65;1.55;;;19.60;47.70;;;;;;4978960;28;20248;-70
2023/04/07 00:42:12;;;;;;;2.08;1.75;;;19.60;47.70;;;;;;4959964;28;20193;-69
2023/04/07 00:44:37;;;;;;;1.60;1.50;;;19.70;47.80;;;;;;4982893;28;20303;-69
2023/04/07 00:47:03;;;;;;;1.65;1.40;;;19.60;47.70;;;;;;4971475;28;20186;-69
2023/04/07 00:49:30;;;;;;;1.73;1.63;;;19.60;47.80;;;;;;4978076;28;20189;-69
2023/04/07 00:51:57;;;;;;;1.33;1.23;;;19.70;47.80;;;;;;4980266;28;20221;-70
2023/04/07 00:54:23;;;;;;;2.00;1.70;;;19.60;47.80;;;;;;4971706;28;20304;-70
2023/04/07 00:56:49;;;;;;;2.15;1.90;;;19.70;47.90;;;;;;4980521;28;20197;-69
2023/04/07 00:59:16;;;;;;;2.05;1.80;;;19.70;47.90;;;;;;4983997;28;20199;-69
2023/04/07 01:01:48;;;;;;;1.90;1.70;;;19.60;47.80;;;;;;4976886;28;20216;-70
2023/04/07 01:04:34;;;;;;;2.08;1.95;;;19.60;47.80;;;;;;4983131;28;20222;-69
2023/04/07 01:07:22;;;;;;;1.83;1.73;;;19.60;47.80;;;;;;4985482;28;20284;-69
2023/04/07 01:10:05;;;;;;;1.80;1.70;;;19.60;47.80;;;;;;4971444;28;20209;-69
2023/04/07 01:12:56;;;;;;;1.70;1.60;;;19.60;47.80;;;;;;4986662;28;20568;-69
2023/04/07 01:15:28;;;;;;;1.58;1.48;;;19.60;47.80;;;;;;4953409;28;20240;-69
2023/04/07 01:18:14;;;;;;;1.60;1.50;;;19.60;47.80;;;;;;4974431;28;20185;-69
2023/04/07 01:20:46;;;;;;;2.10;1.60;;;19.60;47.80;;;;;;4982337;28;20309;-70
2023/04/07 01:23:31;;;;;;;1.80;1.70;;;19.60;47.80;;;;;;4977973;28;20208;-70
2023/04/07 01:26:19;;;;;;;1.75;1.65;;;19.60;47.80;;;;;;4983770;28;20622;-70
2023/04/07 01:29:25;;;;;;;1.60;1.50;;;19.60;47.80;;;;;;4982562;28;20201;-69
2023/04/07 01:31:55;;;;;;;4.22;1.52;;;19.60;47.80;;;;;;4982306;28;20205;-70
2023/04/07 01:34:26;;;;;;;1.60;1.50;;;19.60;47.80;;;;;;4963538;28;20276;-70
2023/04/07 01:36:55;;;;;;;1.90;1.80;;;19.60;47.80;;;;;;4959917;28;20182;-69
2023/04/07 01:39:22;;;;;;;2.15;1.52;;;19.60;47.90;;;;;;4975231;28;20222;-70
2023/04/07 01:41:51;;;;;;;1.90;1.80;;;19.60;47.90;;;;;;4957717;28;20213;-69
2023/04/07 01:44:19;;;;;;;1.77;1.67;;;19.60;47.90;;;;;;4982424;28;20672;-70
2023/04/07 01:46:45;;;;;;;1.58;1.48;;;19.60;47.90;;;;;;4990033;28;20207;-69
2023/04/07 01:49:13;;;;;;;1.50;1.40;;;19.60;47.90;;;;;;4965970;28;20188;-70
2023/04/07 01:51:41;;;;;;;1.48;1.30;;;19.60;47.90;;;;;;4974047;28;20269;-69
2023/04/07 01:54:07;;;;;;;1.50;1.40;;;19.60;47.90;;;;;;4981937;28;20238;-69
2023/04/07 01:56:33;;;;;;;1.55;1.45;;;19.60;48.50;;;;;;4957805;28;20225;-70
2023/04/07 01:59:03;;;;;;;1.60;1.50;;;19.60;47.90;;;;;;4974106;28;20778;-70
2023/04/07 02:01:29;;;;;;;2.58;1.58;;;19.50;47.90;;;;;;4965515;28;20216;-69
2023/04/07 02:04:24;;;;;;;1.90;1.80;;;19.60;47.90;;;;;;4973921;28;20213;-69
2023/04/07 02:07:06;;;;;;;1.60;1.50;;;19.60;47.90;;;;;;4974467;28;20355;-69
2023/04/07 02:09:41;;;;;;;1.40;1.30;;;19.60;47.90;;;;;;4982717;28;20185;-70
2023/04/07 02:12:12;;;;;;;2.05;1.70;;;19.50;47.90;;;;;;4956784;28;20302;-69
2023/04/07 02:14:43;;;;;;;1.92;1.73;;;19.50;47.90;;;;;;4981730;28;20197;-70
2023/04/07 02:17:15;;;;;;;1.52;1.42;;;19.60;48.00;;;;;;4977306;28;20196;-70
2023/04/07 02:19:44;;;;;;;1.50;1.40;;;19.60;48.00;;;;;;4977078;28;20653;-69
2023/04/07 02:22:12;;;;;;;1.70;1.60;;;19.50;47.90;;;;;;4972491;28;20193;-69
2023/04/07 02:24:42;;;;;;;1.63;1.50;;;19.60;48.00;;;;;;4977571;28;20214;-69
2023/04/07 02:27:08;;;;;;;1.60;1.50;;;19.60;48.00;;;;;;4957192;28;20182;-69
2023/04/07 02:29:34;;;;;;;1.50;1.30;;;19.50;47.90;;;;;;4974564;28;20192;-69
2023/04/07 02:31:59;;;;;;;1.90;1.80;;;19.50;48.00;;;;;;4974869;28;20217;-69
2023/04/07 02:34:28;;;;;;;1.77;1.38;;;19.50;48.00;;;;;;4984628;28;20189;-69
2023/04/07 02:36:54;;;;;;;1.60;1.50;;;19.50;48.00;;;;;;4967411;28;20189;-69
2023/04/07 02:39:19;;;;;;;1.52;1.42;;;19.50;48.00;;;;;;4972940;28;20576;-70
2023/04/07 02:41:45;;;;;;;1.45;1.35;;;19.60;48.00;;;;;;4981186;28;20665;-69
2023/04/07 02:44:11;;;;;;;2.25;1.70;;;19.50;48.00;;;;;;4976478;28;20220;-70
2023/04/07 02:46:37;;;;;;;1.40;1.30;;;19.50;48.00;;;;;;4961539;28;20193;-70
2023/04/07 02:49:02;;;;;;;1.70;1.60;;;19.50;48.00;;;;;;4981044;28;20218;-69
2023/04/07 02:51:28;;;;;;;1.50;1.40;;;19.50;48.00;;;;;;4972355;28;20229;-69
2023/04/07 02:53:54;;;;;;;1.70;1.60;;;19.50;48.00;;;;;;4972943;28;20197;-70
2023/04/07 02:56:20;;;;;;;2.10;1.88;;;19.50;48.00;;;;;;4972821;28;20203;-70
2023/04/07 02:58:45;;;;;;;1.85;1.60;;;19.50;48.10;;;;;;4981027;28;20193;-69
2023/04/07 03:01:12;;;;;;;2.03;1.60;;;19.50;48.10;;;;;;4964667;28;20205;-69
2023/04/07 03:03:38;;;;;;;1.60;1.50;;;19.50;48.10;;;;;;4973266;28;20240;-70
2023/04/07 03:06:09;;;;;;;1.63;1.52;;;19.50;48.10;;;;;;4956709;28;20185;-70
2023/04/07 03:08:44;;;;;;;1.48;1.33;;;19.50;48.10;;;;;;4972842;28;20200;-70
2023/04/07 03:11:09;;;;;;;1.40;1.30;;;19.50;48.10;;;;;;4980108;28;20712;-70
2023/04/07 03:13:35;;;;;;;1.98;1.58;;;19.50;48.10;;;;;;4979236;28;20184;-69
2023/04/07 03:16:02;;;;;;;1.45;1.35;;;19.50;48.10;;;;;;4973943;28;20193;-69
2023/04/07 03:18:34;;;;;;;1.92;1.83;;;19.50;48.10;;;;;;4972491;28;20202;-69
2023/04/07 03:21:00;;;;;;;1.48;1.38;;;19.50;48.20;;;;;;4980103;28;20312;-70
2023/04/07 03:23:28;;;;;;;1.42;1.30;;;19.50;48.10;;;;;;4971770;28;20300;-69
2023/04/07 03:25:56;;;;;;;1.60;1.40;;;19.50;48.20;;;;;;4972145;28;20728;-70
2023/04/07 03:28:25;;;;;;;1.70;1.60;;;19.50;48.20;;;;;;4972494;28;20190;-69
2023/04/07 03:30:51;;;;;;;1.77;1.67;;;19.50;48.20;;;;;;4972491;28;20240;-70
2023/04/07 03:33:19;;;;;;;2.20;2.00;;;19.50;48.20;;;;;;4979462;28;20198;-69
2023/04/07 03:35:45;;;;;;;1.90;1.80;;;19.50;48.20;;;;;;4979652;28;20235;-69
2023/04/07 03:38:11;;;;;;;1.83;1.73;;;19.50;48.30;;;;;;4972309;28;20230;-70
2023/04/07 03:40:37;;;;;;;3.90;1.80;;;19.50;48.20;;;;;;4979900;28;20213;-69
2023/04/07 03:43:02;;;;;;;2.30;2.10;;;19.50;48.40;;;;;;4973737;28;20217;-69
2023/04/07 03:45:29;;;;;;;2.05;1.95;;;19.50;48.20;;;;;;4983498;28;20319;-70
2023/04/07 03:47:55;;;;;;;2.20;2.00;;;19.50;48.20;;;;;;4958736;28;20209;-69
2023/04/07 03:50:21;;;;;;;2.58;2.00;;;19.50;48.20;;;;;;4971563;28;20221;-70
2023/04/07 03:52:55;;;;;;;2.38;1.92;;;19.50;48.20;;;;;;4980038;28;20181;-70
2023/04/07 03:55:27;;;;;;;2.30;2.10;;;19.50;48.20;;;;;;4956883;28;20189;-70
2023/04/07 03:57:58;;;;;;;2.10;1.90;;;19.50;48.30;;;;;;4971951;28;20197;-69
2023/04/07 04:00:27;;;;;;;1.90;1.80;;;19.40;48.10;;;;;;4979689;28;20213;-69
2023/04/07 04:03:04;;;;;;;1.80;1.70;;;19.50;48.20;;;;;;4979681;28;20240;-70
2023/04/07 04:05:31;;;;;;;2.20;1.70;;;19.50;48.20;;;;;;4971779;28;20197;-70
2023/04/07 04:07:57;;;;;;;1.92;1.83;;;19.50;48.20;;;;;;4972782;28;20189;-69
2023/04/07 04:10:23;;;;;;;2.20;1.80;;;19.40;48.10;;;;;;4978724;28;20640;-69
2023/04/07 04:12:51;;;;;;;1.90;1.80;;;19.50;48.30;;;;;;4963750;28;20193;-69
2023/04/07 04:15:17;;;;;;;1.80;1.70;;;19.40;48.20;;;;;;4979746;28;20284;-69
2023/04/07 04:17:43;;;;;;;2.22;1.80;;;19.50;48.90;;;;;;4955991;28;20232;-69
2023/04/07 04:20:09;;;;;;;2.05;1.85;;;19.50;48.30;;;;;;4957748;28;20229;-69
2023/04/07 04:22:40;;;;;;;2.30;2.10;;;19.50;48.30;;;;;;4976392;28;20627;-69
2023/04/07 04:25:07;;;;;;;2.17;1.75;;;19.50;48.30;;;;;;4980743;28;20187;-69
2023/04/07 04:27:33;;;;;;;1.70;1.60;;;19.40;48.20;;;;;;4980090;28;20261;-69
2023/04/07 04:30:15;;;;;;;1.55;1.45;;;19.50;48.30;;;;;;4979405;28;20205;-70
2023/04/07 04:32:49;;;;;;;1.65;1.50;;;19.50;48.90;;;;;;4979460;28;20186;-69
2023/04/07 04:35:18;;;;;;;1.67;1.58;;;19.50;48.30;;;;;;4966021;28;20276;-69
2023/04/07 04:37:56;;;;;;;1.67;1.58;;;19.40;48.20;;;;;;4983146;28;20192;-69
2023/04/07 04:40:22;;;;;;;1.60;1.50;;;19.40;48.20;;;;;;4967157;28;20213;-69
2023/04/07 04:42:49;;;;;;;1.50;1.40;;;19.40;48.20;;;;;;4975148;28;20240;-69
2023/04/07 04:45:17;;;;;;;1.50;1.33;;;19.40;48.20;;;;;;4983085;28;20256;-69
2023/04/07 04:47:45;;;;;;;2.63;1.58;;;19.50;48.40;;;;;;4990225;28;20191;-69
2023/04/07 04:50:11;;;;;;;1.80;1.67;;;19.40;48.30;;;;;;4959815;28;20225;-69
2023/04/07 04:52:39;;;;;;;1.60;1.50;;;19.50;48.40;;;;;;4966962;28;20190;-69
2023/04/07 04:55:08;;;;;;;1.52;1.42;;;19.40;48.30;;;;;;4983272;28;20182;-70
2023/04/07 04:57:34;;;;;;;1.65;1.55;;;19.40;48.30;;;;;;4983353;28;20189;-69
2023/04/07 05:00:03;;;;;;;2.10;2.00;;;19.50;48.40;;;;;;4966619;28;20206;-70
2023/04/07 05:02:29;;;;;;;1.67;1.58;;;19.50;48.40;;;;;;4975074;28;20245;-69
2023/04/07 05:04:55;;;;;;;1.90;1.80;;;19.40;48.30;;;;;;4974654;28;20244;-69
2023/04/07 05:07:25;;;;;;;2.15;1.60;;;19.40;48.30;;;;;;4979071;28;20185;-69
2023/04/07 05:09:51;;;;;;;2.83;1.70;;;19.40;48.40;;;;;;4962179;28;20260;-69
2023/04/07 05:12:20;;;;;;;1.88;1.77;;;19.40;48.40;;;;;;4974430;28;20234;-69
2023/04/07 05:14:50;;;;;;;1.67;1.58;;;19.40;48.40;;;;;;4974838;28;20192;-70
2023/04/07 05:17:16;;;;;;;1.42;1.33;;;19.40;48.40;;;;;;4982502;28;20189;-70
2023/04/07 05:19:42;;;;;;;1.75;1.65;;;19.40;48.40;;;;;;4958937;28;20196;-69
2023/04/07 05:22:15;;;;;;;1.90;1.75;;;19.40;48.40;;;;;;4974282;28;20197;-68
2023/04/07 05:24:45;;;;;;;1.63;1.52;;;19.40;48.40;;;;;;4974903;28;20213;-69
2023/04/07 05:27:11;;;;;;;1.35;1.25;;;19.40;48.40;;;;;;4984864;28;20185;-69
2023/04/07 05:29:37;;;;;;;1.63;1.52;;;19.40;48.40;;;;;;4980647;28;20189;-69
2023/04/07 05:32:06;;;;;;;1.65;1.55;;;19.40;48.40;;;;;;4974199;28;20209;-69
2023/04/07 05:34:32;;;;;;;1.60;1.50;;;19.40;48.40;;;;;;4958391;28;20189;-68
2023/04/07 05:36:57;;;;;;;1.52;1.42;;;19.40;48.40;;;;;;4974422;28;20189;-69
2023/04/07 05:39:24;;;;;;;1.73;1.63;;;19.40;48.40;;;;;;4974230;28;20188;-68
2023/04/07 05:41:53;;;;;;;1.83;1.73;;;19.40;48.40;;;;;;4974106;28;20212;-69
2023/04/07 05:44:23;;;;;;;1.67;1.58;;;19.40;49.00;;;;;;4966555;28;20212;-69
2023/04/07 05:46:49;;;;;;;1.50;1.40;;;19.40;48.40;;;;;;4973332;28;20182;-68
2023/04/07 05:49:16;;;;;;;1.85;1.70;;;19.40;48.40;;;;;;4958098;28;20486;-69
2023/04/07 05:51:42;;;;;;;1.60;1.50;;;19.40;48.40;;;;;;4982093;28;20328;-68
2023/04/07 05:54:11;;;;;;;1.85;1.40;;;19.40;48.40;;;;;;4974223;28;20238;-68
2023/04/07 05:56:37;;;;;;;1.45;1.33;;;19.40;48.40;;;;;;4958205;28;20193;-70
2023/04/07 05:59:04;;;;;;;1.50;1.40;;;19.40;48.40;;;;;;4973773;28;20243;-69
2023/04/07 06:01:30;;;;;;;1.67;1.58;;;19.40;48.40;;;;;;4973646;28;20296;-70
2023/04/07 06:03:57;;;;;;;1.50;1.40;;;19.40;48.40;;;;;;4974052;28;20287;-69
2023/04/07 06:06:25;;;;;;;1.80;1.70;;;19.40;48.40;;;;;;4958252;28;20214;-69
2023/04/07 06:08:51;;;;;;;2.08;1.58;;;19.40;48.50;;;;;;4973821;28;20558;-69
2023/04/07 06:11:17;;;;;;;1.85;1.52;;;19.40;48.50;;;;;;4973538;28;20221;-70
2023/04/07 06:13:42;;;;;;;1.40;1.30;;;19.30;48.40;;;;;;4974103;28;20190;-68
2023/04/07 06:16:08;;;;;;;1.52;1.38;;;19.40;48.50;;;;;;4973620;28;20181;-68
2023/04/07 06:18:36;;;;;;;1.45;1.35;;;19.40;48.50;;;;;;4974864;28;20185;-68
2023/04/07 06:21:04;;;;;;;1.77;1.60;;;19.40;48.50;;;;;;4973659;28;20216;-67
2023/04/07 06:23:30;;;;;;;1.60;1.50;;;19.40;48.50;;;;;;4973510;28;20213;-68
2023/04/07 06:25:56;;;;;;;1.90;1.77;;;19.40;48.50;;;;;;4973626;28;20229;-67
2023/04/07 06:28:22;;;;;;;1.90;1.80;;;19.40;48.50;;;;;;4974483;28;20575;-68
2023/04/07 06:30:48;;;;;;;1.88;1.52;;;19.40;48.50;;;;;;4973079;28;20252;-67
2023/04/07 06:33:15;;;;;;;2.15;1.95;;;19.30;48.50;;;;;;4973207;28;20210;-67
2023/04/07 06:35:41;;;;;;;1.90;1.80;;;19.40;48.50;;;;;;4971952;28;20212;-68
2023/04/07 06:38:07;;;;;;;1.55;1.45;;;19.40;48.60;;;;;;4974044;28;20646;-67
2023/04/07 06:40:33;;;;;;;1.65;1.52;;;19.40;48.60;;;;;;4972909;28;20219;-67
2023/04/07 06:42:58;;;;;;;2.03;1.88;;;19.40;48.60;;;;;;4973006;28;20193;-68
2023/04/07 06:45:39;;;;;;;1.50;1.40;;;19.40;48.60;;;;;;4989308;28;20213;-68
2023/04/07 06:48:05;;;;;;;1.55;1.33;;;19.40;48.60;;;;;;4973032;28;20212;-68
2023/04/07 06:50:31;;;;;;;1.70;1.60;;;19.40;48.60;;;;;;4972777;28;20352;-67
2023/04/07 06:52:57;;;;;;;1.60;1.50;;;19.40;48.60;;;;;;4973135;28;20717;-68
2023/04/07 06:55:22;;;;;;;1.63;1.52;;;19.40;48.60;;;;;;4973099;28;20252;-68
2023/04/07 06:57:51;;;;;;;1.83;1.73;;;19.40;48.60;;;;;;4973160;28;20185;-68
2023/04/07 07:00:17;;;;;;;2.72;2.10;;;19.40;48.60;;;;;;4956763;28;20232;-68
2023/04/07 07:02:43;;;;;;;1.50;1.40;;;19.40;48.60;;;;;;4972600;28;20252;-68
2023/04/07 07:05:10;;;;;;;2.13;1.92;;;19.40;48.60;;;;;;4973069;28;20646;-68
2023/04/07 07:07:36;;;;;;;1.67;1.40;;;19.40;48.60;;;;;;4972961;28;20186;-68
2023/04/07 07:10:02;;;;;;;1.98;1.83;;;19.50;48.70;;;;;;4973712;28;20216;-67
2023/04/07 07:12:28;;;;;;;1.80;1.70;;;19.40;48.70;;;;;;4972006;28;20194;-68
2023/04/07 07:14:54;;;;;;;1.95;1.75;;;19.40;48.60;;;;;;4973588;28;20177;-68
2023/04/07 07:17:20;;;;;;;1.77;1.67;;;19.40;48.70;;;;;;4972261;28;20256;-68
2023/04/07 07:19:45;;;;;;;1.85;1.75;;;19.40;48.60;;;;;;4956280;28;20660;-68
2023/04/07 07:22:11;;;;;;;2.05;1.90;;;19.50;48.80;;;;;;4973325;28;20198;-68
2023/04/07 07:24:37;;;;;;;2.25;2.05;;;19.40;48.70;;;;;;4972361;28;20216;-68
2023/04/07 07:27:02;;;;;;;2.20;1.90;;;19.40;48.70;;;;;;4956458;28;20185;-67
2023/04/07 07:29:28;;;;;;;1.90;1.80;;;19.40;48.70;;;;;;4972298;28;20220;-68
2023/04/07 07:31:54;;;;;;;1.80;1.70;;;19.40;48.70;;;;;;4980122;28;20204;-68
2023/04/07 07:34:20;;;;;;;2.30;2.10;;;19.40;48.80;;;;;;4974358;28;20225;-67
2023/04/07 07:36:46;;;;;;;2.25;1.70;;;19.40;48.70;;;;;;4955900;28;20178;-67
2023/04/07 07:39:13;;;;;;;2.33;2.13;;;19.40;48.80;;;;;;4939630;28;20623;-67
2023/04/07 07:41:39;;;;;;;2.22;1.80;;;19.40;48.80;;;;;;4972873;28;20205;-67
2023/04/07 07:44:04;;;;;;;1.80;1.70;;;19.50;48.80;;;;;;4973054;28;20205;-67
2023/04/07 07:46:30;;;;;;;1.85;1.50;;;19.50;48.80;;;;;;4973276;28;20189;-68
2023/04/07 07:48:56;;;;;;;1.75;1.65;;;19.40;48.70;;;;;;4971896;28;20276;-68
2023/04/07 07:51:22;;;;;;;1.50;1.40;;;19.50;48.80;;;;;;4972731;28;20229;-68
2023/04/07 07:53:47;;;;;;;2.10;1.65;;;19.50;48.90;;;;;;4973256;28;20715;-68
2023/04/07 07:56:13;;;;;;;1.83;1.55;;;19.50;48.80;;;;;;4971770;28;20691;-68
2023/04/07 07:58:39;;;;;;;1.92;1.70;;;19.50;48.80;;;;;;4977762;28;20189;-68
2023/04/07 08:01:05;;;;;;;1.92;1.55;;;19.50;48.80;;;;;;4974645;28;20316;-68
2023/04/07 08:03:30;;;;;;;1.63;1.52;;;19.50;48.80;;;;;;4971852;28;20288;-68
2023/04/07 08:05:56;;;;;;;2.00;1.80;;;19.50;48.80;;;;;;4955823;28;20213;-68
2023/04/07 08:08:22;;;;;;;1.70;1.60;;;19.50;48.80;;;;;;4971775;28;20208;-68
2023/04/07 08:10:48;;;;;;;1.60;1.50;;;19.50;48.80;;;;;;4961344;28;20209;-68
2023/04/07 08:13:13;;;;;;;1.70;1.50;;;19.50;48.80;;;;;;4978481;28;20201;-68
2023/04/07 08:15:39;;;;;;;1.52;1.42;;;19.50;48.70;;;;;;4961949;28;20185;-68
2023/04/07 08:18:06;;;;;;;2.00;1.90;;;19.50;48.70;;;;;;4961894;28;20657;-68
2023/04/07 08:20:32;;;;;;;1.75;1.60;;;19.60;48.80;;;;;;4977532;28;20209;-68
2023/04/07 08:23:01;;;;;;;2.55;1.95;;;19.50;48.70;;;;;;4979057;28;20189;-68
2023/04/07 08:25:27;;;;;;;1.60;1.50;;;19.60;48.80;;;;;;4981798;28;20189;-68
2023/04/07 08:27:53;;;;;;;1.80;1.60;;;19.60;48.80;;;;;;4981721;28;20200;-68
2023/04/07 08:30:20;;;;;;;2.13;1.83;;;19.60;48.70;;;;;;4978682;28;20209;-67
2023/04/07 08:32:46;;;;;;;1.80;1.70;;;19.60;48.60;;;;;;4977832;28;20188;-68
2023/04/07 08:35:12;;;;;;;4.22;1.70;;;19.70;48.80;;;;;;4979047;28;20201;-68
2023/04/07 08:37:40;;;;;;;1.90;1.80;;;19.70;48.60;;;;;;4982179;28;20275;-68
2023/04/07 08:40:06;;;;;;;2.13;1.50;;;19.80;48.80;;;;;;4981281;28;20216;-68
2023/04/07 08:42:34;;;;;;;2.15;1.77;;;19.80;48.80;;;;;;4977801;28;20208;-68
2023/04/07 08:45:04;;;;;;;2.88;1.73;;;19.80;48.70;;;;;;4978006;28;20209;-68
2023/04/07 08:47:32;;;;;;;1.92;1.73;;;19.80;48.80;;;;;;4979001;28;20559;-69
2023/04/07 08:50:10;;;;;;;1.90;1.75;;;19.80;48.80;;;;;;4977728;28;20174;-69
2023/04/07 08:52:45;;;;;;;2.78;1.75;;;19.80;48.80;;;;;;4985918;28;20252;-68
2023/04/07 08:55:11;;;;;;;1.58;1.48;;;19.80;48.80;;;;;;4977748;28;20189;-68
2023/04/07 08:57:38;;;;;;;2.67;1.70;;;19.80;48.90;;;;;;4983237;28;20199;-68
2023/04/07 09:00:05;;;;;;;2.13;1.73;;;19.80;48.90;;;;;;4982775;28;20236;-69
2023/04/07 09:02:44;;;;;;;3.20;1.60;;;19.80;48.90;;;;;;4969280;28;20185;-69
2023/04/07 09:05:13;;;;;;;1.90;1.63;;;19.80;49.40;;;;;;4961405;28;20216;-68
2023/04/07 09:07:39;;;;;;;3.42;1.50;;;19.80;48.90;;;;;;4961520;28;20181;-68
2023/04/07 09:10:06;;;;;;;1.65;1.55;;;19.80;49.00;;;;;;4977673;28;20205;-69
2023/04/07 09:12:33;;;;;;;1.77;1.60;;;19.80;48.90;;;;;;4978725;28;20189;-69
2023/04/07 09:14:59;;;;;;;3.13;1.77;;;19.80;48.90;;;;;;4977963;28;20284;-69
2023/04/07 09:17:27;;;;;;;2.40;1.65;;;19.80;49.00;;;;;;4969517;28;20206;-68
2023/04/07 09:19:57;;;;;;;1.45;1.30;;;19.80;49.20;;;;;;4961681;28;20193;-68
2023/04/07 09:22:37;;;;;;;2.55;1.55;;;19.80;49.00;;;;;;4959078;28;20277;-69
2023/04/07 09:25:25;;;;;;;3.42;1.60;;;19.80;49.00;;;;;;4979940;28;20216;-69
2023/04/07 09:28:08;;;;;;;3.10;1.98;;;19.80;49.00;;;;;;4975862;28;20196;-69
2023/04/07 09:30:34;;;;;;;2.22;1.85;;;19.80;49.00;;;;;;4966469;28;20240;-69
2023/04/07 09:33:01;;;;;;;3.75;1.90;;;19.80;49.10;;;;;;4982460;28;20189;-69
2023/04/07 09:35:27;;;;;;;2.65;1.63;;;19.80;49.10;;;;;;4984989;28;20193;-69
2023/04/07 09:38:06;;;;;;;3.28;1.58;;;19.80;49.10;;;;;;4963888;28;20229;-68
2023/04/07 09:40:34;;;;;;;3.33;1.42;;;19.80;49.20;;;;;;4974101;28;20244;-68
2023/04/07 09:43:01;;;;;;;2.70;1.45;;;19.80;49.30;;;;;;4982300;28;20232;-68
2023/04/07 09:45:28;;;;;;;3.60;1.92;;;19.80;49.20;;;;;;4982407;28;20288;-69
2023/04/07 09:47:54;;;;;;;2.88;1.70;;;19.80;49.50;;;;;;4983479;28;20241;-68
2023/04/07 09:50:32;;;;;;;4.97;2.00;;;19.80;49.30;;;;;;4975009;28;20251;-69
2023/04/07 09:52:58;;;;;;;1.67;1.55;;;19.80;49.30;;;;;;4974031;28;20189;-68
2023/04/07 09:55:24;;;;;;;3.33;1.60;;;19.80;49.20;;;;;;4974813;28;20233;-68
2023/04/07 09:57:51;;;;;;;2.10;1.50;;;19.80;49.20;;;;;;4975783;28;20256;-69
2023/04/07 10:00:17;;;;;;;3.30;1.85;;;19.80;49.20;;;;;;4983600;28;20223;-69
2023/04/07 10:02:44;;;;;;;2.72;1.77;;;19.80;49.30;;;;;;4974327;28;20696;-69
2023/04/07 10:05:10;;;;;;;3.55;1.88;;;19.80;49.40;;;;;;4983627;28;20305;-69
2023/04/07 10:07:36;;;;;;;2.40;1.77;;;19.80;49.20;;;;;;4966066;28;20273;-69
2023/04/07 10:10:04;;;;;;;3.22;2.00;;;19.80;49.30;;;;;;4973962;28;20304;-69
2023/04/07 10:12:33;;;;;;;3.53;1.88;;;19.80;49.40;;;;;;4989433;28;20677;-69
2023/04/07 10:15:01;;;;;;;3.15;1.90;;;19.80;49.20;;;;;;4980043;28;20197;-69
2023/04/07 10:17:28;;;;;;;3.42;1.90;;;19.80;49.20;;;;;;4976074;28;20193;-69
2023/04/07 10:19:58;;;;;;;3.67;1.65;;;19.80;49.10;;;;;;4973565;28;20185;-69
2023/04/07 10:22:26;;;;;;;2.70;1.90;;;19.80;49.20;;;;;;4974242;28;20194;-69
2023/04/07 10:25:10;;;;;;;4.10;1.98;;;19.80;49.20;;;;;;4957545;28;20260;-69
2023/04/07 10:27:49;;;;;;;4.13;1.60;;;19.80;49.20;;;;;;4973177;28;20186;-69
2023/04/07 10:30:27;;;;;;;4.60;2.17;;;19.80;49.00;;;;;;4972444;28;20209;-69
2023/04/07 10:32:54;;;;;;;2.97;1.90;;;19.80;49.20;;;;;;4973024;28;20196;-70
2023/04/07 10:35:21;;;;;;;2.33;1.73;;;19.80;49.00;;;;;;4973236;28;20236;-69
2023/04/07 10:38:05;;;;;;;3.42;1.85;;;19.80;49.10;;;;;;4974392;28;20209;-69
2023/04/07 10:40:32;;;;;;;4.85;2.10;;;19.80;49.10;;;;;;4980885;28;20252;-69
2023/04/07 10:42:58;;;;;;;4.45;1.73;;;19.80;49.10;;;;;;4973313;28;20209;-69
2023/04/07 10:45:47;;;;;;;5.13;1.95;;;19.80;49.00;;;;;;4973063;28;20190;-69
2023/04/07 10:48:17;;;;;;;3.55;1.55;;;19.80;49.20;;;;;;4957370;28;20202;-69
2023/04/07 10:50:45;;;;;;;4.60;1.85;;;19.80;49.10;;;;;;4974546;28;20256;-69
2023/04/07 10:53:15;;;;;;;3.63;1.60;;;19.80;49.10;;;;;;4973524;28;20190;-70
2023/04/07 10:55:45;;;;;;;5.95;1.95;;;19.80;49.10;;;;;;4972924;28;20214;-69
2023/04/07 10:58:29;;;;;;;2.65;1.98;;;19.80;49.40;;;;;;4974210;28;20752;-69
2023/04/07 11:01:13;;;;;;;4.60;2.40;;;19.80;49.00;;;;;;4972648;28;20224;-69
2023/04/07 11:03:51;;;;;;;4.32;2.42;;;19.80;49.10;;;;;;4972693;28;20349;-69
2023/04/07 11:06:17;;;;;;;5.65;1.85;;;19.80;49.20;;;;;;4973869;28;20624;-69
2023/04/07 11:08:45;;;;;;;3.90;1.77;;;19.80;49.10;;;;;;4976501;28;20180;-68
2023/04/07 11:11:14;;;;;;;3.08;1.85;;;19.80;49.10;;;;;;4976870;28;20206;-69
2023/04/07 11:13:46;;;;;;;4.03;1.67;;;19.80;49.10;;;;;;4956617;28;20194;-69
2023/04/07 11:16:16;;;;;;;3.53;2.25;;;19.80;49.20;;;;;;4973058;28;20194;-69
2023/04/07 11:18:44;;;;;;;3.28;1.77;;;19.80;49.10;;;;;;4973499;28;20201;-69
2023/04/07 11:21:10;;;;;;;4.13;1.67;;;19.80;49.10;;;;;;4972174;28;20223;-69
2023/04/07 11:23:41;;;;;;;4.03;2.03;;;19.80;49.10;;;;;;4974919;28;20216;-69
2023/04/07 11:26:10;;;;;;;4.70;1.80;;;19.80;49.00;;;;;;4967825;28;20272;-69
2023/04/07 11:28:48;;;;;;;5.57;1.98;;;19.80;49.20;;;;;;4973053;28;20193;-69
2023/04/07 11:31:29;;;;;;;4.45;1.75;;;19.80;49.10;;;;;;4972111;28;20217;-69
2023/04/07 11:34:03;;;;;;;2.50;1.70;;;19.80;49.00;;;;;;4950561;28;20189;-69
2023/04/07 11:36:37;;;;;;;5.45;1.65;;;19.80;49.10;;;;;;4973432;28;20281;-69
2023/04/07 11:39:02;;;;;;;4.43;1.73;;;19.80;49.20;;;;;;4972172;28;20197;-69
2023/04/07 11:41:32;;;;;;;6.20;1.92;;;19.80;49.10;;;;;;4974670;28;20212;-69
2023/04/07 11:44:09;;;;;;;3.45;1.90;;;19.80;49.10;;;;;;4984088;28;20295;-69
2023/04/07 11:46:36;;;;;;;4.15;1.58;;;19.80;49.10;;;;;;4973066;28;20726;-69
2023/04/07 11:49:14;;;;;;;3.92;1.83;;;19.80;49.20;;;;;;4972272;28;20190;-69
2023/04/07 11:51:42;;;;;;;5.40;1.60;;;19.80;49.20;;;;;;4973058;28;20221;-69
2023/04/07 11:54:09;;;;;;;3.28;1.70;;;19.80;49.20;;;;;;4973280;28;20193;-69
2023/04/07 11:56:47;;;;;;;3.50;1.50;;;19.80;49.20;;;;;;4971612;28;20208;-69
2023/04/07 11:59:25;;;;;;;4.30;1.77;;;19.80;49.20;;;;;;4972100;28;20193;-69
2023/04/07 12:01:52;;;;;;;3.33;1.83;;;19.80;49.20;;;;;;4955984;28;20205;-69
2023/04/07 12:04:18;;;;;;;5.85;2.13;;;19.80;49.20;;;;;;4971842;28;20219;-70
2023/04/07 12:06:47;;;;;;;7.60;1.80;;;19.80;49.90;;;;;;4965408;28;20182;-69
2023/04/07 12:09:28;;;;;;;6.05;2.15;;;19.80;50.10;;;;;;4973265;28;20196;-69
2023/04/07 12:11:54;;;;;;;3.50;1.90;;;19.80;49.90;;;;;;4981259;28;20259;-69
2023/04/07 12:14:20;;;;;;;4.53;1.60;;;19.80;49.90;;;;;;4971837;28;20198;-69
2023/04/07 12:16:45;;;;;;;6.93;2.50;;;19.80;49.80;;;;;;4956105;28;20225;-70
2023/04/07 12:19:11;;;;;;;7.75;2.40;;;19.80;50.20;;;;;;4971855;28;20228;-70
2023/04/07 12:21:37;;;;;;;6.35;2.30;;;19.80;50.10;;;;;;4955621;28;20219;-70
2023/04/07 12:24:03;;;;;;;11.20;2.47;;;19.80;50.70;;;;;;4972891;28;20305;-69
2023/04/07 12:26:28;;;;;;;6.22;1.55;;;19.80;50.00;;;;;;4973053;28;20186;-69
2023/04/07 12:28:55;;;;;;;5.70;2.10;;;19.80;50.00;;;;;;4971836;28;20272;-70
2023/04/07 12:31:21;;;;;;;3.63;1.92;;;19.80;50.50;;;;;;4969514;28;20206;-69
2023/04/07 12:33:47;;;;;;;2.53;1.70;;;19.80;49.80;;;;;;4971935;28;20194;-70
2023/04/07 12:36:12;;;;;;;5.47;1.65;;;19.80;49.70;;;;;;4971708;28;20208;-69
2023/04/07 12:38:38;;;;;;;4.53;2.10;;;19.80;49.80;;;;;;4971685;28;20194;-69
2023/04/07 12:41:04;;;;;;;5.25;1.92;;;19.80;49.80;;;;;;4955647;28;20321;-70
2023/04/07 12:43:30;;;;;;;4.80;2.00;;;19.80;49.90;;;;;;4971456;28;20253;-69
2023/04/07 12:45:56;;;;;;;4.70;1.85;;;19.80;49.70;;;;;;4971834;28;20198;-69
2023/04/07 12:48:22;;;;;;;4.90;1.67;;;19.80;49.80;;;;;;4971483;28;20204;-69
2023/04/07 12:50:48;;;;;;;4.53;1.98;;;19.80;49.70;;;;;;4972418;28;20304;-69
2023/04/07 12:53:14;;;;;;;2.97;1.75;;;19.80;49.70;;;;;;4971611;28;20269;-69
2023/04/07 12:55:40;;;;;;;3.42;1.50;;;19.80;49.70;;;;;;4972658;28;20186;-69